world map with RMF marked

RMF - Airport

This information may not be accurate or current and is not valid for navigation or flight planning. No warranty of fitness for any purpose is made or implied.

flag of Al Bahr al Ahmar (Red Sea)flag of Egypt

Donate via PayPal

Additional information is available on the NEW Great Circle Mapper

Location
City:  Marsa Alam, Al Bahr al Ahmar (Red Sea), Egypt
Name:Marsa Alam International Airport
ICAO / IATA:HEMA / RMF

Details
Type:Airport (Aerodrome, Airfield)
Use:Public/Civil
Latitude:25°33'26"N (25.557111)
Longitude:34°35'01"E (34.583711)
Datum:WGS 1984
Elevation:251 ft (77 m)
Runways:1
Longest:9843 × 148 ft (3000 × 45 m)

Time
Timezone:UTC+2 (DST+4)
Local Time:

Weather
METAR:HEMA  110000Z 28012KT CAVOK 17/09 Q1018 NOSIG
TAF:HEMA  (expired)

Related Locations
Nearby:
Farthest:RVV: 12257 mi / 19726 km
Raivavae, Tubuai Islands, Austral Islands, PF

Find:

   beyond  
but within

Other Information
Maps:
Sources:

  


 


Great Circle Mapper   Great Circle Mapper
Great Circle Mapper FAQ   Great Circle Mapper FAQ
  Karl's Home Page
KLSē   KLSē Home
   GC on Facebook
Airlines of the World   Airlines of the World
Donate via PayPal


Copyright © 2004-2018, Karl L. Swartz. All rights reserved.
All trademarks mentioned herein belong to their respective owners.

Please see credits for attribution and copyright information.

Karl Swartz <karl@kls2.com>
  Powered by FreeBSD
Valid HTML 4.01!
Labeled with ICRA
hCard Microformat
Geo Microformat